sensor_id;sensor_type;location;lat;lon;timestamp;P1;durP1;ratioP1;P2;durP2;ratioP2
19257;SDS011;9763;48.780;9.212;2023-02-03T00:02:36;1.10;;;0.80;;
19257;SDS011;9763;48.780;9.212;2023-02-03T00:06:00;2.30;;;1.00;;
19257;SDS011;9763;48.780;9.212;2023-02-03T00:09:26;2.90;;;0.80;;
19257;SDS011;9763;48.780;9.212;2023-02-03T00:12:50;1.20;;;0.80;;
19257;SDS011;9763;48.780;9.212;2023-02-03T00:16:15;1.20;;;0.80;;
19257;SDS011;9763;48.780;9.212;2023-02-03T00:19:38;1.83;;;0.80;;
19257;SDS011;9763;48.780;9.212;2023-02-03T00:23:03;1.30;;;0.80;;
19257;SDS011;9763;48.780;9.212;2023-02-03T00:26:28;1.50;;;0.80;;
19257;SDS011;9763;48.780;9.212;2023-02-03T00:29:52;1.10;;;0.80;;
19257;SDS011;9763;48.780;9.212;2023-02-03T00:33:16;1.20;;;0.67;;
19257;SDS011;9763;48.780;9.212;2023-02-03T00:36:39;1.10;;;0.67;;
19257;SDS011;9763;48.780;9.212;2023-02-03T00:40:04;1.20;;;0.80;;
19257;SDS011;9763;48.780;9.212;2023-02-03T00:43:29;1.20;;;0.70;;
19257;SDS011;9763;48.780;9.212;2023-02-03T00:46:53;1.53;;;0.73;;
19257;SDS011;9763;48.780;9.212;2023-02-03T00:50:17;1.57;;;0.80;;
19257;SDS011;9763;48.780;9.212;2023-02-03T00:53:41;1.00;;;0.70;;
19257;SDS011;9763;48.780;9.212;2023-02-03T00:57:04;1.10;;;0.70;;
19257;SDS011;9763;48.780;9.212;2023-02-03T01:00:30;1.37;;;0.80;;
19257;SDS011;9763;48.780;9.212;2023-02-03T01:03:54;1.87;;;0.80;;
19257;SDS011;9763;48.780;9.212;2023-02-03T01:07:18;1.73;;;0.73;;
19257;SDS011;9763;48.780;9.212;2023-02-03T01:10:42;1.10;;;0.70;;
19257;SDS011;9763;48.780;9.212;2023-02-03T01:14:06;1.43;;;0.70;;
19257;SDS011;9763;48.780;9.212;2023-02-03T01:17:32;1.20;;;0.80;;
19257;SDS011;9763;48.780;9.212;2023-02-03T01:20:55;2.23;;;0.93;;
19257;SDS011;9763;48.780;9.212;2023-02-03T01:24:20;1.30;;;0.70;;
19257;SDS011;9763;48.780;9.212;2023-02-03T01:27:44;1.10;;;0.70;;
19257;SDS011;9763;48.780;9.212;2023-02-03T01:31:08;2.60;;;0.90;;
19257;SDS011;9763;48.780;9.212;2023-02-03T01:34:35;1.70;;;0.90;;
19257;SDS011;9763;48.780;9.212;2023-02-03T01:37:59;1.40;;;0.87;;
19257;SDS011;9763;48.780;9.212;2023-02-03T01:41:24;1.27;;;0.70;;
19257;SDS011;9763;48.780;9.212;2023-02-03T01:44:50;1.30;;;0.90;;
19257;SDS011;9763;48.780;9.212;2023-02-03T01:48:14;1.30;;;0.90;;
19257;SDS011;9763;48.780;9.212;2023-02-03T01:51:39;1.33;;;0.70;;
19257;SDS011;9763;48.780;9.212;2023-02-03T01:55:08;1.83;;;0.90;;
19257;SDS011;9763;48.780;9.212;2023-02-03T01:58:37;1.60;;;1.00;;
19257;SDS011;9763;48.780;9.212;2023-02-03T02:02:03;1.40;;;0.80;;
19257;SDS011;9763;48.780;9.212;2023-02-03T02:05:30;1.10;;;0.80;;
19257;SDS011;9763;48.780;9.212;2023-02-03T02:09:01;2.50;;;1.20;;
19257;SDS011;9763;48.780;9.212;2023-02-03T02:12:25;1.50;;;0.80;;
19257;SDS011;9763;48.780;9.212;2023-02-03T02:15:50;1.97;;;0.80;;
19257;SDS011;9763;48.780;9.212;2023-02-03T02:19:37;1.30;;;0.90;;
19257;SDS011;9763;48.780;9.212;2023-02-03T02:23:57;1.30;;;0.90;;
19257;SDS011;9763;48.780;9.212;2023-02-03T02:32:18;1.40;;;0.90;;
19257;SDS011;9763;48.780;9.212;2023-02-03T02:35:54;1.30;;;0.97;;
19257;SDS011;9763;48.780;9.212;2023-02-03T02:39:26;1.50;;;1.00;;
19257;SDS011;9763;48.780;9.212;2023-02-03T02:43:03;1.70;;;1.23;;
19257;SDS011;9763;48.780;9.212;2023-02-03T02:46:32;1.40;;;0.90;;
19257;SDS011;9763;48.780;9.212;2023-02-03T02:50:03;2.97;;;1.20;;
19257;SDS011;9763;48.780;9.212;2023-02-03T02:53:31;3.87;;;1.10;;
19257;SDS011;9763;48.780;9.212;2023-02-03T02:57:00;1.83;;;1.03;;
19257;SDS011;9763;48.780;9.212;2023-02-03T03:00:28;1.77;;;0.90;;
19257;SDS011;9763;48.780;9.212;2023-02-03T03:03:53;1.73;;;1.03;;
19257;SDS011;9763;48.780;9.212;2023-02-03T03:07:20;1.80;;;1.10;;
19257;SDS011;9763;48.780;9.212;2023-02-03T03:10:48;1.40;;;0.90;;
19257;SDS011;9763;48.780;9.212;2023-02-03T03:14:16;2.60;;;1.20;;
19257;SDS011;9763;48.780;9.212;2023-02-03T03:17:44;1.37;;;0.93;;
19257;SDS011;9763;48.780;9.212;2023-02-03T03:21:17;2.13;;;1.20;;
19257;SDS011;9763;48.780;9.212;2023-02-03T03:24:49;1.20;;;0.70;;
19257;SDS011;9763;48.780;9.212;2023-02-03T03:28:20;1.40;;;0.90;;
19257;SDS011;9763;48.780;9.212;2023-02-03T03:31:50;1.20;;;0.70;;
19257;SDS011;9763;48.780;9.212;2023-02-03T03:35:14;1.00;;;0.70;;
19257;SDS011;9763;48.780;9.212;2023-02-03T03:38:40;1.10;;;0.70;;
19257;SDS011;9763;48.780;9.212;2023-02-03T03:42:13;1.10;;;0.60;;
19257;SDS011;9763;48.780;9.212;2023-02-03T03:45:43;1.10;;;0.70;;
19257;SDS011;9763;48.780;9.212;2023-02-03T03:49:11;1.10;;;0.70;;
19257;SDS011;9763;48.780;9.212;2023-02-03T03:52:36;1.20;;;0.70;;
19257;SDS011;9763;48.780;9.212;2023-02-03T03:56:02;1.10;;;0.70;;
19257;SDS011;9763;48.780;9.212;2023-02-03T03:59:30;1.00;;;0.60;;
19257;SDS011;9763;48.780;9.212;2023-02-03T04:03:01;3.17;;;0.70;;
19257;SDS011;9763;48.780;9.212;2023-02-03T04:06:33;1.00;;;0.60;;
19257;SDS011;9763;48.780;9.212;2023-02-03T04:09:56;1.00;;;0.60;;
19257;SDS011;9763;48.780;9.212;2023-02-03T04:13:20;1.03;;;0.63;;
19257;SDS011;9763;48.780;9.212;2023-02-03T04:16:45;1.00;;;0.60;;
19257;SDS011;9763;48.780;9.212;2023-02-03T04:20:10;1.20;;;0.70;;
19257;SDS011;9763;48.780;9.212;2023-02-03T04:23:34;1.30;;;0.60;;
19257;SDS011;9763;48.780;9.212;2023-02-03T04:26:58;1.20;;;0.70;;
19257;SDS011;9763;48.780;9.212;2023-02-03T04:30:23;1.30;;;0.70;;
19257;SDS011;9763;48.780;9.212;2023-02-03T04:33:48;2.23;;;0.80;;
19257;SDS011;9763;48.780;9.212;2023-02-03T04:37:12;1.10;;;0.70;;
19257;SDS011;9763;48.780;9.212;2023-02-03T04:40:36;1.13;;;0.70;;
19257;SDS011;9763;48.780;9.212;2023-02-03T04:44:00;1.60;;;0.80;;
19257;SDS011;9763;48.780;9.212;2023-02-03T04:47:24;1.10;;;0.70;;
19257;SDS011;9763;48.780;9.212;2023-02-03T04:50:50;1.33;;;0.80;;
19257;SDS011;9763;48.780;9.212;2023-02-03T04:54:14;1.10;;;0.60;;
19257;SDS011;9763;48.780;9.212;2023-02-03T04:57:38;1.10;;;0.70;;
19257;SDS011;9763;48.780;9.212;2023-02-03T05:01:04;1.27;;;0.77;;
19257;SDS011;9763;48.780;9.212;2023-02-03T05:04:29;2.60;;;0.80;;
19257;SDS011;9763;48.780;9.212;2023-02-03T05:07:55;1.80;;;0.80;;
19257;SDS011;9763;48.780;9.212;2023-02-03T05:11:18;1.00;;;0.60;;
19257;SDS011;9763;48.780;9.212;2023-02-03T05:14:42;1.40;;;0.70;;
19257;SDS011;9763;48.780;9.212;2023-02-03T05:18:06;1.30;;;0.80;;
19257;SDS011;9763;48.780;9.212;2023-02-03T05:21:30;1.10;;;0.80;;
19257;SDS011;9763;48.780;9.212;2023-02-03T05:24:55;1.10;;;0.60;;
19257;SDS011;9763;48.780;9.212;2023-02-03T05:28:19;1.10;;;0.70;;
19257;SDS011;9763;48.780;9.212;2023-02-03T05:31:43;1.50;;;0.80;;
19257;SDS011;9763;48.780;9.212;2023-02-03T05:35:07;1.00;;;0.60;;
19257;SDS011;9763;48.780;9.212;2023-02-03T05:38:31;1.00;;;0.63;;
19257;SDS011;9763;48.780;9.212;2023-02-03T05:41:56;1.00;;;0.60;;
19257;SDS011;9763;48.780;9.212;2023-02-03T05:45:20;1.33;;;0.90;;
19257;SDS011;9763;48.780;9.212;2023-02-03T05:48:44;1.00;;;0.60;;
19257;SDS011;9763;48.780;9.212;2023-02-03T05:52:07;1.20;;;0.70;;
19257;SDS011;9763;48.780;9.212;2023-02-03T05:55:31;1.20;;;0.70;;
19257;SDS011;9763;48.780;9.212;2023-02-03T05:58:57;1.13;;;0.80;;
19257;SDS011;9763;48.780;9.212;2023-02-03T06:02:21;1.80;;;0.80;;
19257;SDS011;9763;48.780;9.212;2023-02-03T06:05:45;1.30;;;0.90;;
19257;SDS011;9763;48.780;9.212;2023-02-03T06:09:09;1.40;;;0.80;;
19257;SDS011;9763;48.780;9.212;2023-02-03T06:12:33;1.20;;;0.80;;
19257;SDS011;9763;48.780;9.212;2023-02-03T06:16:00;1.10;;;0.70;;
19257;SDS011;9763;48.780;9.212;2023-02-03T06:19:24;1.20;;;0.73;;
19257;SDS011;9763;48.780;9.212;2023-02-03T06:22:48;1.37;;;0.80;;
19257;SDS011;9763;48.780;9.212;2023-02-03T06:26:12;1.10;;;0.80;;
19257;SDS011;9763;48.780;9.212;2023-02-03T06:29:36;2.30;;;0.93;;
19257;SDS011;9763;48.780;9.212;2023-02-03T06:33:01;1.03;;;0.67;;
19257;SDS011;9763;48.780;9.212;2023-02-03T06:36:24;1.10;;;0.70;;
19257;SDS011;9763;48.780;9.212;2023-02-03T06:39:48;2.20;;;0.93;;
19257;SDS011;9763;48.780;9.212;2023-02-03T06:43:12;1.37;;;0.70;;
19257;SDS011;9763;48.780;9.212;2023-02-03T06:46:36;1.57;;;1.07;;
19257;SDS011;9763;48.780;9.212;2023-02-03T06:50:01;1.00;;;0.60;;
19257;SDS011;9763;48.780;9.212;2023-02-03T06:53:25;1.50;;;0.87;;
19257;SDS011;9763;48.780;9.212;2023-02-03T06:56:48;1.00;;;0.60;;
19257;SDS011;9763;48.780;9.212;2023-02-03T07:00:12;1.00;;;0.63;;
19257;SDS011;9763;48.780;9.212;2023-02-03T07:03:39;1.10;;;0.60;;
19257;SDS011;9763;48.780;9.212;2023-02-03T07:07:04;1.00;;;0.60;;
19257;SDS011;9763;48.780;9.212;2023-02-03T07:10:28;1.47;;;0.80;;
19257;SDS011;9763;48.780;9.212;2023-02-03T07:13:52;1.60;;;1.10;;
19257;SDS011;9763;48.780;9.212;2023-02-03T07:17:16;1.20;;;0.87;;
19257;SDS011;9763;48.780;9.212;2023-02-03T07:20:39;1.20;;;0.80;;
19257;SDS011;9763;48.780;9.212;2023-02-03T07:24:05;1.10;;;0.70;;
19257;SDS011;9763;48.780;9.212;2023-02-03T07:27:29;1.50;;;0.80;;
19257;SDS011;9763;48.780;9.212;2023-02-03T07:30:52;1.10;;;0.70;;
19257;SDS011;9763;48.780;9.212;2023-02-03T07:34:16;2.17;;;1.00;;
19257;SDS011;9763;48.780;9.212;2023-02-03T07:37:40;1.30;;;0.77;;
19257;SDS011;9763;48.780;9.212;2023-02-03T07:41:05;1.97;;;0.90;;
19257;SDS011;9763;48.780;9.212;2023-02-03T07:44:30;2.07;;;0.90;;
19257;SDS011;9763;48.780;9.212;2023-02-03T07:47:54;1.30;;;0.93;;
19257;SDS011;9763;48.780;9.212;2023-02-03T07:51:17;1.40;;;1.00;;
19257;SDS011;9763;48.780;9.212;2023-02-03T07:54:41;1.50;;;0.90;;
19257;SDS011;9763;48.780;9.212;2023-02-03T07:58:07;1.20;;;0.80;;
19257;SDS011;9763;48.780;9.212;2023-02-03T08:01:30;1.43;;;0.80;;
19257;SDS011;9763;48.780;9.212;2023-02-03T08:04:54;1.97;;;1.17;;
19257;SDS011;9763;48.780;9.212;2023-02-03T08:08:19;1.33;;;0.90;;
19257;SDS011;9763;48.780;9.212;2023-02-03T08:11:43;1.77;;;1.20;;
19257;SDS011;9763;48.780;9.212;2023-02-03T08:15:09;1.40;;;0.93;;
19257;SDS011;9763;48.780;9.212;2023-02-03T08:18:33;1.83;;;1.37;;
19257;SDS011;9763;48.780;9.212;2023-02-03T08:21:57;3.30;;;1.30;;
19257;SDS011;9763;48.780;9.212;2023-02-03T08:25:21;1.33;;;1.00;;
19257;SDS011;9763;48.780;9.212;2023-02-03T08:28:47;2.40;;;1.10;;
19257;SDS011;9763;48.780;9.212;2023-02-03T08:32:13;1.60;;;1.23;;
19257;SDS011;9763;48.780;9.212;2023-02-03T08:35:38;1.67;;;1.20;;
19257;SDS011;9763;48.780;9.212;2023-02-03T08:39:02;3.43;;;1.30;;
19257;SDS011;9763;48.780;9.212;2023-02-03T08:42:26;1.50;;;1.20;;
19257;SDS011;9763;48.780;9.212;2023-02-03T08:45:50;2.17;;;1.10;;
19257;SDS011;9763;48.780;9.212;2023-02-03T08:49:15;1.60;;;1.17;;
19257;SDS011;9763;48.780;9.212;2023-02-03T08:52:39;1.60;;;1.10;;
19257;SDS011;9763;48.780;9.212;2023-02-03T08:56:04;1.80;;;1.10;;
19257;SDS011;9763;48.780;9.212;2023-02-03T08:59:28;1.20;;;0.80;;
19257;SDS011;9763;48.780;9.212;2023-02-03T09:02:51;1.40;;;1.07;;
19257;SDS011;9763;48.780;9.212;2023-02-03T09:06:17;5.20;;;1.20;;
19257;SDS011;9763;48.780;9.212;2023-02-03T09:09:44;1.17;;;0.90;;
19257;SDS011;9763;48.780;9.212;2023-02-03T09:13:08;2.80;;;1.03;;
19257;SDS011;9763;48.780;9.212;2023-02-03T09:16:32;1.10;;;0.80;;
19257;SDS011;9763;48.780;9.212;2023-02-03T09:19:57;1.17;;;0.83;;
19257;SDS011;9763;48.780;9.212;2023-02-03T09:23:22;1.60;;;1.10;;
19257;SDS011;9763;48.780;9.212;2023-02-03T09:26:46;1.47;;;1.10;;
19257;SDS011;9763;48.780;9.212;2023-02-03T09:30:10;2.03;;;1.00;;
19257;SDS011;9763;48.780;9.212;2023-02-03T09:33:35;1.33;;;1.10;;
19257;SDS011;9763;48.780;9.212;2023-02-03T09:36:59;1.83;;;0.90;;
19257;SDS011;9763;48.780;9.212;2023-02-03T09:40:25;1.17;;;0.80;;
19257;SDS011;9763;48.780;9.212;2023-02-03T09:43:52;1.20;;;0.90;;
19257;SDS011;9763;48.780;9.212;2023-02-03T09:47:27;1.87;;;0.80;;
19257;SDS011;9763;48.780;9.212;2023-02-03T09:50:55;1.70;;;0.80;;
19257;SDS011;9763;48.780;9.212;2023-02-03T09:54:20;1.60;;;1.10;;
19257;SDS011;9763;48.780;9.212;2023-02-03T09:58:01;1.30;;;1.07;;
19257;SDS011;9763;48.780;9.212;2023-02-03T10:01:29;1.47;;;1.07;;
19257;SDS011;9763;48.780;9.212;2023-02-03T10:05:03;1.30;;;1.07;;
19257;SDS011;9763;48.780;9.212;2023-02-03T10:08:45;1.30;;;1.03;;
19257;SDS011;9763;48.780;9.212;2023-02-03T10:12:21;2.43;;;0.80;;
19257;SDS011;9763;48.780;9.212;2023-02-03T10:16:11;1.13;;;0.80;;
19257;SDS011;9763;48.780;9.212;2023-02-03T10:19:56;1.20;;;0.80;;
19257;SDS011;9763;48.780;9.212;2023-02-03T10:23:28;1.30;;;0.90;;
19257;SDS011;9763;48.780;9.212;2023-02-03T10:26:55;1.27;;;0.87;;
19257;SDS011;9763;48.780;9.212;2023-02-03T10:30:20;1.83;;;0.80;;
19257;SDS011;9763;48.780;9.212;2023-02-03T10:33:48;1.30;;;1.00;;
19257;SDS011;9763;48.780;9.212;2023-02-03T10:37:21;1.47;;;0.90;;
19257;SDS011;9763;48.780;9.212;2023-02-03T10:40:51;1.10;;;0.80;;
19257;SDS011;9763;48.780;9.212;2023-02-03T10:44:15;1.20;;;0.90;;
19257;SDS011;9763;48.780;9.212;2023-02-03T10:47:40;1.10;;;0.70;;
19257;SDS011;9763;48.780;9.212;2023-02-03T10:51:11;1.20;;;0.70;;
19257;SDS011;9763;48.780;9.212;2023-02-03T10:54:42;1.40;;;0.90;;
19257;SDS011;9763;48.780;9.212;2023-02-03T10:58:09;1.27;;;1.00;;
19257;SDS011;9763;48.780;9.212;2023-02-03T11:01:41;1.20;;;0.80;;
19257;SDS011;9763;48.780;9.212;2023-02-03T11:05:17;1.13;;;0.77;;
19257;SDS011;9763;48.780;9.212;2023-02-03T11:08:47;1.33;;;0.73;;
19257;SDS011;9763;48.780;9.212;2023-02-03T11:12:13;1.20;;;0.80;;
19257;SDS011;9763;48.780;9.212;2023-02-03T11:15:42;1.10;;;0.70;;
19257;SDS011;9763;48.780;9.212;2023-02-03T11:19:11;1.30;;;0.80;;
19257;SDS011;9763;48.780;9.212;2023-02-03T11:22:38;1.10;;;0.60;;
19257;SDS011;9763;48.780;9.212;2023-02-03T11:26:12;1.40;;;0.67;;
19257;SDS011;9763;48.780;9.212;2023-02-03T11:29:41;1.00;;;0.60;;
19257;SDS011;9763;48.780;9.212;2023-02-03T11:33:13;1.10;;;0.70;;
19257;SDS011;9763;48.780;9.212;2023-02-03T11:36:41;1.20;;;0.70;;
19257;SDS011;9763;48.780;9.212;2023-02-03T11:40:21;1.00;;;0.60;;
19257;SDS011;9763;48.780;9.212;2023-02-03T11:43:50;1.87;;;0.80;;
19257;SDS011;9763;48.780;9.212;2023-02-03T11:47:18;1.00;;;0.60;;
19257;SDS011;9763;48.780;9.212;2023-02-03T11:50:45;1.10;;;0.70;;
19257;SDS011;9763;48.780;9.212;2023-02-03T11:54:18;1.10;;;0.70;;
19257;SDS011;9763;48.780;9.212;2023-02-03T11:57:56;1.00;;;0.60;;
19257;SDS011;9763;48.780;9.212;2023-02-03T12:01:50;1.00;;;0.60;;
19257;SDS011;9763;48.780;9.212;2023-02-03T12:05:37;1.00;;;0.70;;
19257;SDS011;9763;48.780;9.212;2023-02-03T12:09:18;1.10;;;0.70;;
19257;SDS011;9763;48.780;9.212;2023-02-03T12:12:54;1.00;;;0.70;;
19257;SDS011;9763;48.780;9.212;2023-02-03T12:16:47;1.10;;;0.63;;
19257;SDS011;9763;48.780;9.212;2023-02-03T12:20:39;1.43;;;0.70;;
19257;SDS011;9763;48.780;9.212;2023-02-03T12:24:23;1.10;;;0.60;;
19257;SDS011;9763;48.780;9.212;2023-02-03T12:28:04;1.00;;;0.70;;
19257;SDS011;9763;48.780;9.212;2023-02-03T12:31:57;1.40;;;0.80;;
19257;SDS011;9763;48.780;9.212;2023-02-03T12:35:32;1.30;;;0.70;;
19257;SDS011;9763;48.780;9.212;2023-02-03T12:39:01;1.47;;;0.70;;
19257;SDS011;9763;48.780;9.212;2023-02-03T12:42:38;1.13;;;0.70;;
19257;SDS011;9763;48.780;9.212;2023-02-03T12:46:11;1.33;;;0.87;;
19257;SDS011;9763;48.780;9.212;2023-02-03T12:49:44;1.43;;;1.00;;
19257;SDS011;9763;48.780;9.212;2023-02-03T12:53:15;1.10;;;0.77;;
19257;SDS011;9763;48.780;9.212;2023-02-03T12:56:42;1.10;;;0.80;;
19257;SDS011;9763;48.780;9.212;2023-02-03T13:00:15;1.20;;;0.80;;
19257;SDS011;9763;48.780;9.212;2023-02-03T13:03:47;1.37;;;1.00;;
19257;SDS011;9763;48.780;9.212;2023-02-03T13:07:24;1.77;;;0.90;;
19257;SDS011;9763;48.780;9.212;2023-02-03T13:10:56;1.17;;;0.80;;
19257;SDS011;9763;48.780;9.212;2023-02-03T13:14:37;1.30;;;0.70;;
19257;SDS011;9763;48.780;9.212;2023-02-03T13:18:07;1.30;;;0.80;;
19257;SDS011;9763;48.780;9.212;2023-02-03T13:21:42;1.30;;;0.90;;
19257;SDS011;9763;48.780;9.212;2023-02-03T13:25:26;1.30;;;0.90;;
19257;SDS011;9763;48.780;9.212;2023-02-03T13:29:00;1.10;;;0.70;;
19257;SDS011;9763;48.780;9.212;2023-02-03T13:32:51;1.87;;;0.80;;
19257;SDS011;9763;48.780;9.212;2023-02-03T13:37:09;1.20;;;0.70;;
19257;SDS011;9763;48.780;9.212;2023-02-03T13:41:18;1.20;;;0.80;;
19257;SDS011;9763;48.780;9.212;2023-02-03T13:44:52;1.40;;;0.83;;
19257;SDS011;9763;48.780;9.212;2023-02-03T13:48:22;1.40;;;0.83;;
19257;SDS011;9763;48.780;9.212;2023-02-03T13:51:48;1.20;;;0.80;;
19257;SDS011;9763;48.780;9.212;2023-02-03T13:55:23;1.50;;;0.90;;
19257;SDS011;9763;48.780;9.212;2023-02-03T13:59:01;1.47;;;0.80;;
19257;SDS011;9763;48.780;9.212;2023-02-03T14:02:29;1.40;;;0.80;;
19257;SDS011;9763;48.780;9.212;2023-02-03T14:06:07;1.40;;;0.70;;
19257;SDS011;9763;48.780;9.212;2023-02-03T14:10:19;1.40;;;0.77;;
19257;SDS011;9763;48.780;9.212;2023-02-03T14:13:45;1.77;;;0.90;;
19257;SDS011;9763;48.780;9.212;2023-02-03T14:21:35;1.47;;;0.87;;
19257;SDS011;9763;48.780;9.212;2023-02-03T14:25:05;1.10;;;0.70;;
19257;SDS011;9763;48.780;9.212;2023-02-03T14:28:36;1.00;;;0.60;;
19257;SDS011;9763;48.780;9.212;2023-02-03T14:32:03;1.50;;;0.97;;
19257;SDS011;9763;48.780;9.212;2023-02-03T14:35:31;1.20;;;0.80;;
19257;SDS011;9763;48.780;9.212;2023-02-03T14:38:58;1.30;;;0.80;;
19257;SDS011;9763;48.780;9.212;2023-02-03T14:42:31;1.30;;;0.80;;
19257;SDS011;9763;48.780;9.212;2023-02-03T14:46:39;1.10;;;0.80;;
19257;SDS011;9763;48.780;9.212;2023-02-03T14:50:23;1.10;;;0.70;;
19257;SDS011;9763;48.780;9.212;2023-02-03T14:54:09;1.60;;;1.00;;
19257;SDS011;9763;48.780;9.212;2023-02-03T14:57:43;1.10;;;0.70;;
19257;SDS011;9763;48.780;9.212;2023-02-03T15:05:35;1.37;;;0.83;;
19257;SDS011;9763;48.780;9.212;2023-02-03T15:09:02;1.10;;;0.70;;
19257;SDS011;9763;48.780;9.212;2023-02-03T15:12:45;1.30;;;0.93;;
19257;SDS011;9763;48.780;9.212;2023-02-03T15:16:11;1.13;;;0.70;;
19257;SDS011;9763;48.780;9.212;2023-02-03T15:19:40;1.30;;;0.80;;
19257;SDS011;9763;48.780;9.212;2023-02-03T15:23:17;1.20;;;0.70;;
19257;SDS011;9763;48.780;9.212;2023-02-03T15:26:46;1.20;;;0.70;;
19257;SDS011;9763;48.780;9.212;2023-02-03T15:30:15;1.10;;;0.60;;
19257;SDS011;9763;48.780;9.212;2023-02-03T15:33:44;1.10;;;0.70;;
19257;SDS011;9763;48.780;9.212;2023-02-03T15:37:12;1.70;;;0.73;;
19257;SDS011;9763;48.780;9.212;2023-02-03T15:40:44;1.20;;;0.80;;
19257;SDS011;9763;48.780;9.212;2023-02-03T15:44:13;1.20;;;0.80;;
19257;SDS011;9763;48.780;9.212;2023-02-03T15:47:46;1.30;;;0.90;;
19257;SDS011;9763;48.780;9.212;2023-02-03T15:51:17;2.20;;;0.80;;
19257;SDS011;9763;48.780;9.212;2023-02-03T15:54:45;1.60;;;0.80;;
19257;SDS011;9763;48.780;9.212;2023-02-03T15:58:16;1.60;;;0.80;;
19257;SDS011;9763;48.780;9.212;2023-02-03T16:01:45;1.10;;;0.80;;
19257;SDS011;9763;48.780;9.212;2023-02-03T16:05:14;1.70;;;0.80;;
19257;SDS011;9763;48.780;9.212;2023-02-03T16:08:45;1.20;;;0.70;;
19257;SDS011;9763;48.780;9.212;2023-02-03T16:12:14;1.47;;;1.00;;
19257;SDS011;9763;48.780;9.212;2023-02-03T16:15:45;1.10;;;0.83;;
19257;SDS011;9763;48.780;9.212;2023-02-03T16:19:22;1.13;;;0.77;;
19257;SDS011;9763;48.780;9.212;2023-02-03T16:23:03;1.37;;;0.90;;
19257;SDS011;9763;48.780;9.212;2023-02-03T16:26:29;1.10;;;0.70;;
19257;SDS011;9763;48.780;9.212;2023-02-03T16:34:11;1.23;;;0.70;;
19257;SDS011;9763;48.780;9.212;2023-02-03T16:37:54;1.10;;;0.70;;
19257;SDS011;9763;48.780;9.212;2023-02-03T16:41:44;2.13;;;0.83;;
19257;SDS011;9763;48.780;9.212;2023-02-03T16:45:25;1.30;;;1.00;;
19257;SDS011;9763;48.780;9.212;2023-02-03T16:49:06;1.37;;;0.80;;
19257;SDS011;9763;48.780;9.212;2023-02-03T16:52:49;1.67;;;0.87;;
19257;SDS011;9763;48.780;9.212;2023-02-03T16:56:13;1.30;;;0.90;;
19257;SDS011;9763;48.780;9.212;2023-02-03T16:59:39;1.10;;;0.70;;
19257;SDS011;9763;48.780;9.212;2023-02-03T17:03:02;1.63;;;0.97;;
19257;SDS011;9763;48.780;9.212;2023-02-03T17:06:27;1.20;;;0.70;;
19257;SDS011;9763;48.780;9.212;2023-02-03T17:09:52;1.00;;;0.67;;
19257;SDS011;9763;48.780;9.212;2023-02-03T17:13:17;1.50;;;0.90;;
19257;SDS011;9763;48.780;9.212;2023-02-03T17:16:42;1.47;;;0.70;;
19257;SDS011;9763;48.780;9.212;2023-02-03T17:20:06;1.20;;;0.80;;
19257;SDS011;9763;48.780;9.212;2023-02-03T17:23:31;1.10;;;0.80;;
19257;SDS011;9763;48.780;9.212;2023-02-03T17:26:56;1.20;;;0.90;;
19257;SDS011;9763;48.780;9.212;2023-02-03T17:30:20;1.50;;;1.07;;
19257;SDS011;9763;48.780;9.212;2023-02-03T17:33:44;1.10;;;0.80;;
19257;SDS011;9763;48.780;9.212;2023-02-03T17:37:12;1.30;;;0.90;;
19257;SDS011;9763;48.780;9.212;2023-02-03T17:40:37;1.30;;;1.00;;
19257;SDS011;9763;48.780;9.212;2023-02-03T17:44:21;1.10;;;0.80;;
19257;SDS011;9763;48.780;9.212;2023-02-03T17:48:03;1.90;;;1.00;;
19257;SDS011;9763;48.780;9.212;2023-02-03T17:51:45;1.20;;;0.80;;
19257;SDS011;9763;48.780;9.212;2023-02-03T17:55:26;1.20;;;0.83;;
19257;SDS011;9763;48.780;9.212;2023-02-03T17:58:53;1.83;;;0.97;;
19257;SDS011;9763;48.780;9.212;2023-02-03T18:02:20;1.60;;;1.33;;
19257;SDS011;9763;48.780;9.212;2023-02-03T18:05:48;1.77;;;1.40;;
19257;SDS011;9763;48.780;9.212;2023-02-03T18:09:12;1.40;;;1.20;;
19257;SDS011;9763;48.780;9.212;2023-02-03T18:12:37;1.30;;;0.83;;
19257;SDS011;9763;48.780;9.212;2023-02-03T18:16:01;1.40;;;1.00;;
19257;SDS011;9763;48.780;9.212;2023-02-03T18:19:27;1.23;;;0.90;;
19257;SDS011;9763;48.780;9.212;2023-02-03T18:22:52;1.50;;;1.00;;
19257;SDS011;9763;48.780;9.212;2023-02-03T18:26:16;1.60;;;1.20;;
19257;SDS011;9763;48.780;9.212;2023-02-03T18:29:42;1.50;;;1.10;;
19257;SDS011;9763;48.780;9.212;2023-02-03T18:33:06;1.30;;;0.90;;
19257;SDS011;9763;48.780;9.212;2023-02-03T18:36:31;1.10;;;0.80;;
19257;SDS011;9763;48.780;9.212;2023-02-03T18:39:55;1.83;;;0.93;;
19257;SDS011;9763;48.780;9.212;2023-02-03T18:43:19;1.60;;;1.07;;
19257;SDS011;9763;48.780;9.212;2023-02-03T18:46:43;1.47;;;1.13;;
19257;SDS011;9763;48.780;9.212;2023-02-03T18:50:07;1.40;;;1.10;;
19257;SDS011;9763;48.780;9.212;2023-02-03T18:53:33;1.93;;;0.97;;
19257;SDS011;9763;48.780;9.212;2023-02-03T18:56:57;1.87;;;1.00;;
19257;SDS011;9763;48.780;9.212;2023-02-03T19:00:23;1.40;;;0.90;;
19257;SDS011;9763;48.780;9.212;2023-02-03T19:03:47;1.30;;;0.90;;
19257;SDS011;9763;48.780;9.212;2023-02-03T19:07:11;1.80;;;1.03;;
19257;SDS011;9763;48.780;9.212;2023-02-03T19:10:36;1.20;;;0.90;;
19257;SDS011;9763;48.780;9.212;2023-02-03T19:14:00;1.30;;;1.20;;
19257;SDS011;9763;48.780;9.212;2023-02-03T19:17:24;2.40;;;1.20;;
19257;SDS011;9763;48.780;9.212;2023-02-03T19:20:47;1.80;;;1.13;;
19257;SDS011;9763;48.780;9.212;2023-02-03T19:24:11;1.60;;;1.10;;
19257;SDS011;9763;48.780;9.212;2023-02-03T19:27:38;1.70;;;1.43;;
19257;SDS011;9763;48.780;9.212;2023-02-03T19:31:02;1.50;;;1.30;;
19257;SDS011;9763;48.780;9.212;2023-02-03T19:34:29;1.60;;;1.07;;
19257;SDS011;9763;48.780;9.212;2023-02-03T19:37:52;1.20;;;1.00;;
19257;SDS011;9763;48.780;9.212;2023-02-03T19:41:16;1.50;;;1.07;;
19257;SDS011;9763;48.780;9.212;2023-02-03T19:44:40;1.47;;;1.00;;
19257;SDS011;9763;48.780;9.212;2023-02-03T19:48:04;2.10;;;1.30;;
19257;SDS011;9763;48.780;9.212;2023-02-03T19:51:28;1.40;;;1.20;;
19257;SDS011;9763;48.780;9.212;2023-02-03T19:54:51;1.70;;;1.30;;
19257;SDS011;9763;48.780;9.212;2023-02-03T19:58:17;1.60;;;1.30;;
19257;SDS011;9763;48.780;9.212;2023-02-03T20:01:42;1.40;;;1.00;;
19257;SDS011;9763;48.780;9.212;2023-02-03T20:05:06;2.73;;;1.87;;
19257;SDS011;9763;48.780;9.212;2023-02-03T20:08:31;2.30;;;1.40;;
19257;SDS011;9763;48.780;9.212;2023-02-03T20:11:55;1.30;;;1.00;;
19257;SDS011;9763;48.780;9.212;2023-02-03T20:15:18;2.40;;;1.30;;
19257;SDS011;9763;48.780;9.212;2023-02-03T20:18:44;1.80;;;1.40;;
19257;SDS011;9763;48.780;9.212;2023-02-03T20:22:08;1.20;;;0.90;;
19257;SDS011;9763;48.780;9.212;2023-02-03T20:25:32;1.70;;;1.20;;
19257;SDS011;9763;48.780;9.212;2023-02-03T20:28:55;1.53;;;1.10;;
19257;SDS011;9763;48.780;9.212;2023-02-03T20:32:19;1.40;;;1.30;;
19257;SDS011;9763;48.780;9.212;2023-02-03T20:35:46;1.20;;;0.90;;
19257;SDS011;9763;48.780;9.212;2023-02-03T20:39:12;1.43;;;1.10;;
19257;SDS011;9763;48.780;9.212;2023-02-03T20:42:41;1.30;;;1.00;;
19257;SDS011;9763;48.780;9.212;2023-02-03T20:46:05;1.40;;;0.90;;
19257;SDS011;9763;48.780;9.212;2023-02-03T20:49:33;1.40;;;1.00;;
19257;SDS011;9763;48.780;9.212;2023-02-03T20:52:58;1.30;;;1.10;;
19257;SDS011;9763;48.780;9.212;2023-02-03T20:56:21;1.23;;;0.90;;
19257;SDS011;9763;48.780;9.212;2023-02-03T20:59:46;1.30;;;1.00;;
19257;SDS011;9763;48.780;9.212;2023-02-03T21:03:10;1.23;;;1.00;;
19257;SDS011;9763;48.780;9.212;2023-02-03T21:06:54;1.50;;;1.00;;
19257;SDS011;9763;48.780;9.212;2023-02-03T21:10:19;1.43;;;1.00;;
19257;SDS011;9763;48.780;9.212;2023-02-03T21:13:46;1.30;;;0.83;;
19257;SDS011;9763;48.780;9.212;2023-02-03T21:17:14;1.20;;;0.83;;
19257;SDS011;9763;48.780;9.212;2023-02-03T21:20:43;1.10;;;0.80;;
19257;SDS011;9763;48.780;9.212;2023-02-03T21:24:15;1.40;;;0.90;;
19257;SDS011;9763;48.780;9.212;2023-02-03T21:27:50;3.03;;;0.90;;
19257;SDS011;9763;48.780;9.212;2023-02-03T21:31:19;2.20;;;1.10;;
19257;SDS011;9763;48.780;9.212;2023-02-03T21:34:47;2.30;;;1.47;;